aviador You're here:

K4I3 Decoded Metar

in _UNIDENTIFIED
Report Time2017-11-21 00:36:00
UTC Time2017-11-21 00:50:25
Flight Rules vfr VFR
Wind190° at 09 kt
W.Rank190° ranks 8
Current wind is above 190° avg. (6.4)
Visibility9999 m
Phenomena:N/A
Clouds:N/A
Expected CloudBase > 2,400 ft AGL from Temp-Dew spread
CeilingNone
Temp03°C (ISA -10)
Dew Point-3°C (65% RH)
AAT-2.6°C
QNH1018 hPa
Density Alt-72 ft
Elevation1,191 ft
Report Wrong Elevation
Raw Report
METAR K4I3 210036Z AUTO 19009KT 10SM CLR 03/M03 A3005 RMK AO2=

Extra information for K4I3:More info

Metar Taf Metar & Taf Last 4 Metars F.Rules Stats Wind Profile Meteogram Temp Stats Metar ALERT Operation Metar Decoded Social comments